Time;durP1;ratioP1;P1;durP2;ratioP2;P2;SDS_P1;SDS_P2;PMS_P1;PMS_P2;Temp;Humidity;BMP_temperature;BMP_pressure;BME280_temperature;BME280_humidity;BME280_pressure;Samples;Min_cycle;Max_cycle;Signal;HPM_P1;HPM_P2
2022/11/16 00:01:49;;;;;;;2.75;0.75;;;6.50;99.90;;;;;;6390248;27;20272;-68
2022/11/16 00:04:54;;;;;;;0.60;0.60;;;6.40;99.90;;;;;;6389953;27;20288;-68
2022/11/16 00:08:01;;;;;;;0.80;0.80;;;6.40;99.90;;;;;;6390258;27;20272;-68
2022/11/16 00:11:07;;;;;;;0.60;0.60;;;6.40;99.90;;;;;;6389407;27;20295;-67
2022/11/16 00:14:13;;;;;;;0.80;0.80;;;6.40;99.90;;;;;;6371570;27;20288;-67
2022/11/16 00:17:18;;;;;;;0.70;0.70;;;6.30;99.90;;;;;;6371934;27;20300;-68
2022/11/16 00:20:23;;;;;;;0.70;0.70;;;6.40;99.90;;;;;;6389022;27;20292;-68
2022/11/16 00:23:29;;;;;;;0.60;0.60;;;6.50;99.90;;;;;;6389412;27;20264;-68
2022/11/16 00:26:34;;;;;;;1.13;0.80;;;6.40;99.90;;;;;;6389620;27;20541;-67
2022/11/16 00:29:39;;;;;;;0.70;0.70;;;6.30;99.90;;;;;;6389426;27;20308;-67
2022/11/16 00:32:44;;;;;;;0.70;0.70;;;6.30;99.90;;;;;;6389670;27;20432;-67
2022/11/16 00:35:49;;;;;;;1.20;0.70;;;6.40;99.90;;;;;;6389462;27;20296;-67
2022/11/16 00:38:55;;;;;;;1.47;0.70;;;6.30;99.90;;;;;;6370836;27;20288;-67
2022/11/16 00:42:00;;;;;;;1.40;0.77;;;6.40;99.90;;;;;;6389183;27;20268;-67
2022/11/16 00:45:06;;;;;;;0.73;0.73;;;6.30;99.90;;;;;;6370699;27;20299;-67
2022/11/16 00:48:13;;;;;;;0.73;0.73;;;6.30;99.90;;;;;;6388984;27;20273;-67
2022/11/16 00:51:18;;;;;;;2.53;0.90;;;6.40;99.90;;;;;;6388115;27;20284;-67
2022/11/16 00:54:24;;;;;;;0.80;0.80;;;6.40;99.90;;;;;;6380174;27;20292;-67
2022/11/16 00:57:29;;;;;;;0.67;0.67;;;6.50;99.90;;;;;;6371008;27;20532;-67
2022/11/16 01:00:34;;;;;;;0.80;0.80;;;6.50;99.90;;;;;;6363351;27;20473;-68
2022/11/16 01:03:39;;;;;;;0.90;0.90;;;6.40;99.90;;;;;;6370353;27;20288;-67
2022/11/16 01:06:45;;;;;;;1.43;0.70;;;6.50;99.90;;;;;;6370611;27;20264;-67
2022/11/16 01:09:51;;;;;;;0.87;0.70;;;6.50;99.90;;;;;;6369848;27;20288;-66
2022/11/16 01:12:55;;;;;;;0.90;0.90;;;6.40;99.90;;;;;;6362062;28;20266;-66
2022/11/16 01:16:00;;;;;;;0.80;0.80;;;6.50;99.90;;;;;;6362233;28;20297;-68
2022/11/16 01:19:06;;;;;;;0.70;0.70;;;6.50;99.90;;;;;;6344215;28;20316;-67
2022/11/16 01:22:13;;;;;;;1.10;0.90;;;6.60;99.90;;;;;;6362017;28;20265;-67
2022/11/16 01:25:20;;;;;;;0.93;0.93;;;6.60;99.90;;;;;;6361508;28;20292;-67
2022/11/16 01:28:25;;;;;;;0.90;0.90;;;6.60;99.90;;;;;;6361560;28;20269;-67
2022/11/16 01:31:31;;;;;;;0.80;0.80;;;6.60;99.90;;;;;;6361287;28;20285;-67
2022/11/16 01:34:37;;;;;;;1.60;0.90;;;6.60;99.90;;;;;;6343881;28;20318;-66
2022/11/16 01:37:53;;;;;;;0.90;0.90;;;6.60;99.90;;;;;;6361183;28;20267;-66
2022/11/16 01:41:00;;;;;;;1.60;0.70;;;6.70;99.90;;;;;;6361061;28;20391;-66
2022/11/16 01:44:55;;;;;;;0.80;0.80;;;6.70;99.90;;;;;;6343668;28;20288;-67
2022/11/16 01:47:59;;;;;;;1.70;0.83;;;6.60;99.90;;;;;;6343902;28;20265;-67
2022/11/16 01:51:09;;;;;;;0.80;0.80;;;6.50;99.90;;;;;;6343550;28;20613;-67
2022/11/16 01:54:15;;;;;;;0.80;0.80;;;6.60;99.90;;;;;;6360527;28;20292;-67
2022/11/16 01:57:40;;;;;;;0.90;0.80;;;6.70;99.90;;;;;;6362092;28;20449;-66
2022/11/16 02:00:47;;;;;;;0.77;0.77;;;6.70;99.90;;;;;;6343114;28;20312;-67
2022/11/16 02:04:18;;;;;;;0.80;0.80;;;6.60;99.90;;;;;;6358742;28;20456;-67
2022/11/16 02:11:34;;;;;;;0.77;0.77;;;6.60;99.90;;;;;;6349198;27;20288;-66
2022/11/16 02:14:58;;;;;;;0.83;0.83;;;6.50;99.90;;;;;;6368571;27;20301;-67
2022/11/16 02:18:16;;;;;;;0.80;0.80;;;6.50;99.90;;;;;;6368389;27;20268;-68
2022/11/16 02:21:36;;;;;;;0.80;0.80;;;6.50;99.90;;;;;;6386312;27;20280;-68
2022/11/16 02:24:48;;;;;;;0.70;0.70;;;6.40;99.90;;;;;;6386178;27;20490;-66
2022/11/16 02:28:20;;;;;;;0.80;0.80;;;6.40;99.90;;;;;;6386655;27;20268;-67
2022/11/16 02:31:31;;;;;;;0.73;0.73;;;6.30;99.90;;;;;;6367927;27;20288;-66
2022/11/16 02:34:41;;;;;;;0.80;0.80;;;6.40;99.90;;;;;;6367959;27;20299;-67
2022/11/16 02:37:50;;;;;;;0.90;0.90;;;6.30;99.90;;;;;;6368593;27;20273;-68
2022/11/16 02:41:00;;;;;;;0.90;0.90;;;6.30;99.90;;;;;;6367897;27;20615;-66
2022/11/16 02:44:12;;;;;;;0.77;0.77;;;6.30;99.90;;;;;;6367845;27;20333;-68
2022/11/16 02:47:23;;;;;;;0.90;0.90;;;6.40;99.90;;;;;;6368099;27;20427;-66
2022/11/16 02:50:30;;;;;;;0.70;0.70;;;6.30;99.90;;;;;;6368170;27;20288;-67
2022/11/16 02:53:42;;;;;;;0.70;0.70;;;6.30;99.90;;;;;;6367582;28;20307;-67
2022/11/16 02:56:54;;;;;;;0.80;0.80;;;6.40;99.90;;;;;;6368385;28;20265;-67
2022/11/16 03:00:05;;;;;;;0.70;0.70;;;6.40;99.90;;;;;;6354964;28;20578;-67
2022/11/16 03:03:28;;;;;;;0.80;0.80;;;6.40;99.90;;;;;;6342893;28;20268;-67
2022/11/16 03:06:38;;;;;;;0.60;0.60;;;6.40;99.90;;;;;;6342937;28;20264;-67
2022/11/16 03:09:46;;;;;;;0.93;0.70;;;6.40;99.90;;;;;;6342142;28;20291;-67
2022/11/16 03:12:50;;;;;;;0.70;0.70;;;6.30;99.90;;;;;;6323215;28;20290;-67
2022/11/16 03:15:56;;;;;;;0.77;0.77;;;6.20;99.90;;;;;;6338526;28;20588;-66
2022/11/16 03:19:06;;;;;;;0.80;0.80;;;6.30;99.90;;;;;;6339663;28;20300;-66
2022/11/16 03:22:14;;;;;;;0.60;0.60;;;6.40;99.90;;;;;;6340483;28;20266;-67
2022/11/16 03:25:21;;;;;;;0.70;0.70;;;6.40;99.90;;;;;;6321905;28;20297;-67
2022/11/16 03:28:35;;;;;;;0.70;0.70;;;6.40;99.90;;;;;;6321527;28;20269;-67
2022/11/16 03:31:47;;;;;;;0.77;0.77;;;6.40;99.90;;;;;;6339731;28;20297;-67
2022/11/16 03:35:02;;;;;;;1.00;1.00;;;6.30;99.90;;;;;;6338351;28;20297;-67
2022/11/16 03:38:10;;;;;;;1.10;1.10;;;6.40;99.90;;;;;;6339267;28;20271;-67
2022/11/16 03:41:20;;;;;;;1.13;1.13;;;6.40;99.90;;;;;;6321573;28;20274;-67
2022/11/16 03:44:26;;;;;;;0.90;0.90;;;6.40;99.90;;;;;;6339658;28;20297;-67
2022/11/16 03:47:31;;;;;;;1.00;1.00;;;6.40;99.90;;;;;;6339795;28;20549;-67
2022/11/16 03:50:37;;;;;;;1.00;1.00;;;6.40;99.90;;;;;;6338163;28;20316;-67
2022/11/16 03:53:43;;;;;;;1.07;1.03;;;6.30;99.90;;;;;;6338816;28;20297;-67
2022/11/16 03:56:49;;;;;;;0.90;0.90;;;6.30;99.90;;;;;;6339842;28;20272;-67
2022/11/16 03:59:53;;;;;;;0.90;0.90;;;6.20;99.90;;;;;;6347854;28;20293;-67
2022/11/16 04:02:58;;;;;;;0.67;0.67;;;6.30;99.90;;;;;;6369748;27;20294;-68
2022/11/16 04:29:57;;;;;;;0.80;0.80;;;6.40;99.90;;;;;;6369619;27;20296;-66
2022/11/16 04:39:50;;;;;;;0.70;0.70;;;6.40;99.90;;;;;;6387503;27;20287;-67
2022/11/16 04:42:57;;;;;;;0.80;0.80;;;6.40;99.90;;;;;;6388113;27;20299;-67
2022/11/16 04:49:26;;;;;;;0.80;0.80;;;6.40;99.90;;;;;;6370496;27;20320;-67
2022/11/16 04:52:34;;;;;;;0.80;0.80;;;6.30;99.90;;;;;;6387778;27;20303;-67
2022/11/16 04:55:42;;;;;;;0.77;0.77;;;6.30;99.90;;;;;;6371055;27;20264;-66
2022/11/16 04:58:47;;;;;;;1.00;0.87;;;6.30;99.90;;;;;;6387166;27;20295;-66
2022/11/16 05:02:10;;;;;;;0.70;0.70;;;6.30;99.90;;;;;;6366680;27;20296;-67
2022/11/16 05:05:27;;;;;;;1.90;0.80;;;6.30;99.90;;;;;;6386812;27;20430;-67
2022/11/16 05:08:32;;;;;;;0.70;0.70;;;6.20;99.90;;;;;;6370109;27;20618;-67
2022/11/16 05:11:39;;;;;;;0.90;0.90;;;6.20;99.90;;;;;;6387820;27;20264;-66
2022/11/16 05:14:45;;;;;;;0.70;0.70;;;6.30;99.90;;;;;;6369908;27;20308;-66
2022/11/16 05:17:53;;;;;;;0.80;0.80;;;6.20;99.90;;;;;;6369850;27;20288;-67
2022/11/16 05:21:00;;;;;;;0.80;0.80;;;6.20;99.90;;;;;;6370372;27;20565;-67
2022/11/16 05:27:36;;;;;;;0.60;0.60;;;6.30;99.90;;;;;;6369155;27;20320;-67
2022/11/16 05:30:46;;;;;;;0.63;0.63;;;6.20;99.90;;;;;;6369818;27;20271;-67
2022/11/16 05:33:55;;;;;;;0.70;0.70;;;6.20;99.90;;;;;;6369464;27;20299;-67
2022/11/16 05:37:01;;;;;;;1.03;0.70;;;6.20;99.90;;;;;;6368553;27;20360;-68
2022/11/16 05:40:08;;;;;;;0.73;0.70;;;6.20;99.90;;;;;;6369725;27;20264;-67
2022/11/16 05:43:22;;;;;;;0.83;0.83;;;6.30;99.90;;;;;;6369499;27;20295;-67
2022/11/16 05:46:35;;;;;;;0.80;0.80;;;6.20;99.90;;;;;;6369506;27;20352;-67
2022/11/16 05:49:41;;;;;;;1.47;1.00;;;6.20;99.90;;;;;;6369263;27;20295;-67
2022/11/16 05:52:46;;;;;;;0.87;0.87;;;6.20;99.90;;;;;;6369167;27;20288;-67
2022/11/16 05:55:52;;;;;;;0.90;0.90;;;6.20;99.90;;;;;;6369423;27;20268;-67
2022/11/16 05:58:59;;;;;;;0.90;0.90;;;6.20;99.90;;;;;;6368664;27;20295;-67
2022/11/16 06:02:04;;;;;;;1.13;1.00;;;6.10;99.90;;;;;;6387303;27;20299;-68
2022/11/16 06:05:11;;;;;;;0.90;0.90;;;6.10;99.90;;;;;;6369151;27;20268;-67
2022/11/16 06:08:16;;;;;;;1.90;1.10;;;6.10;99.90;;;;;;6369019;27;20296;-67
2022/11/16 06:11:21;;;;;;;2.00;1.20;;;6.10;99.90;;;;;;6370750;27;20257;-66
2022/11/16 06:14:27;;;;;;;1.00;1.00;;;6.10;99.90;;;;;;6360053;28;20358;-67
2022/11/16 06:17:32;;;;;;;1.10;1.10;;;6.10;99.90;;;;;;6359516;28;20285;-67
2022/11/16 06:20:39;;;;;;;0.90;0.90;;;6.10;99.90;;;;;;6359924;28;20264;-66
2022/11/16 06:23:45;;;;;;;1.00;1.00;;;6.10;99.90;;;;;;6359695;28;20593;-66
2022/11/16 06:26:50;;;;;;;0.90;0.90;;;6.10;99.90;;;;;;6343447;28;20541;-68
2022/11/16 06:29:56;;;;;;;1.00;1.00;;;6.20;99.90;;;;;;6359759;28;20308;-68
2022/11/16 06:33:01;;;;;;;0.90;0.90;;;6.20;99.90;;;;;;6360409;28;20475;-67
2022/11/16 06:36:07;;;;;;;1.10;1.10;;;6.10;99.90;;;;;;6360186;28;20265;-67
2022/11/16 06:39:13;;;;;;;0.90;0.90;;;6.20;99.90;;;;;;6359381;28;20303;-67
2022/11/16 06:42:18;;;;;;;1.00;1.00;;;6.20;99.90;;;;;;6359406;28;20597;-68
2022/11/16 06:45:25;;;;;;;1.20;1.20;;;6.20;99.90;;;;;;6361340;28;20274;-68
2022/11/16 06:48:33;;;;;;;1.00;1.00;;;6.10;99.90;;;;;;6359252;28;20589;-68
2022/11/16 06:51:42;;;;;;;0.90;0.90;;;6.10;99.90;;;;;;6359898;28;20264;-68
2022/11/16 06:54:47;;;;;;;0.90;0.90;;;6.00;99.90;;;;;;6360415;28;20293;-67
2022/11/16 06:57:52;;;;;;;1.20;1.20;;;6.00;99.90;;;;;;6341562;28;20297;-68
2022/11/16 07:01:06;;;;;;;1.00;1.00;;;6.00;99.90;;;;;;6357744;28;20299;-67
2022/11/16 07:04:13;;;;;;;1.10;1.10;;;6.00;99.90;;;;;;6384850;27;20612;-67
2022/11/16 07:07:23;;;;;;;0.90;0.90;;;6.00;99.90;;;;;;6367439;27;20537;-66
2022/11/16 07:10:30;;;;;;;1.20;1.20;;;6.00;99.90;;;;;;6384912;28;20255;-68
2022/11/16 07:13:37;;;;;;;1.40;1.03;;;6.00;99.90;;;;;;6367470;28;20588;-67
2022/11/16 07:16:44;;;;;;;1.40;1.03;;;6.10;99.90;;;;;;6368055;28;20268;-67
2022/11/16 07:19:49;;;;;;;1.10;1.10;;;6.00;99.90;;;;;;6367431;28;20290;-67
2022/11/16 07:23:05;;;;;;;1.17;1.17;;;6.00;99.90;;;;;;6367443;28;20304;-67
2022/11/16 07:26:24;;;;;;;0.90;0.90;;;5.90;99.90;;;;;;6367929;28;20550;-68
2022/11/16 07:29:54;;;;;;;1.00;1.00;;;5.90;99.90;;;;;;6367444;28;20478;-67
2022/11/16 07:33:22;;;;;;;1.00;1.00;;;6.00;99.90;;;;;;6385155;28;20297;-67
2022/11/16 07:36:50;;;;;;;1.20;1.20;;;5.90;99.90;;;;;;6386322;28;20260;-67
2022/11/16 07:39:59;;;;;;;1.00;1.00;;;6.00;99.90;;;;;;6367471;28;20293;-66
2022/11/16 07:43:05;;;;;;;1.00;1.00;;;6.00;99.90;;;;;;6367483;28;20608;-68
2022/11/16 07:46:31;;;;;;;1.13;1.10;;;6.00;99.90;;;;;;6385563;28;20272;-67
2022/11/16 07:49:58;;;;;;;2.27;1.10;;;6.00;99.90;;;;;;6367138;28;20464;-67
2022/11/16 07:53:04;;;;;;;1.07;1.07;;;6.00;99.90;;;;;;6366992;28;20468;-67
2022/11/16 07:56:13;;;;;;;0.83;0.83;;;5.90;99.90;;;;;;6367675;28;20291;-67
2022/11/16 07:59:21;;;;;;;1.10;1.10;;;5.90;99.90;;;;;;6366245;27;20299;-67
2022/11/16 08:02:26;;;;;;;0.90;0.90;;;5.80;99.90;;;;;;6371609;27;20291;-67
2022/11/16 08:05:33;;;;;;;2.70;1.00;;;5.90;99.90;;;;;;6371876;27;20286;-68
2022/11/16 08:08:38;;;;;;;1.00;1.00;;;5.90;99.90;;;;;;6371918;27;20540;-68
2022/11/16 08:11:45;;;;;;;1.10;1.10;;;5.90;99.90;;;;;;6364731;27;20260;-68
2022/11/16 08:14:51;;;;;;;0.93;0.93;;;5.90;99.90;;;;;;6371542;27;20295;-66
2022/11/16 08:17:58;;;;;;;0.90;0.90;;;5.80;99.90;;;;;;6388494;27;20296;-67
2022/11/16 08:21:07;;;;;;;1.00;1.00;;;5.70;99.90;;;;;;6389142;27;20272;-67
2022/11/16 08:24:12;;;;;;;1.10;1.00;;;5.70;99.90;;;;;;6388178;27;20293;-67
2022/11/16 08:27:19;;;;;;;1.00;1.00;;;5.70;99.90;;;;;;6379557;27;20287;-66
2022/11/16 08:30:28;;;;;;;1.67;1.57;;;5.70;99.90;;;;;;6388625;27;20439;-66
2022/11/16 08:33:33;;;;;;;1.17;1.17;;;5.70;99.90;;;;;;6371043;27;20308;-67
2022/11/16 08:36:40;;;;;;;0.93;0.93;;;5.70;99.90;;;;;;6371618;27;20288;-66
2022/11/16 08:39:45;;;;;;;1.40;1.17;;;5.70;99.90;;;;;;6371070;27;20596;-66
2022/11/16 08:42:55;;;;;;;1.00;1.00;;;5.70;99.90;;;;;;6387750;27;20288;-67
2022/11/16 08:46:01;;;;;;;1.10;1.10;;;5.70;99.90;;;;;;6371091;27;20268;-67
2022/11/16 08:49:06;;;;;;;11.97;1.00;;;5.80;99.90;;;;;;6369823;27;20299;-67
2022/11/16 08:52:15;;;;;;;0.90;0.90;;;5.80;99.90;;;;;;6371039;27;20264;-67
2022/11/16 08:55:20;;;;;;;1.07;1.07;;;5.80;99.90;;;;;;6387542;27;20287;-67
2022/11/16 08:58:25;;;;;;;1.10;1.10;;;5.70;99.90;;;;;;6388541;27;20316;-66
2022/11/16 09:01:31;;;;;;;1.13;1.00;;;5.70;99.90;;;;;;6380595;27;20486;-67
2022/11/16 09:04:37;;;;;;;1.20;1.20;;;5.80;99.90;;;;;;6388177;27;20319;-67
2022/11/16 09:07:44;;;;;;;1.07;1.07;;;5.80;99.90;;;;;;6388268;27;20587;-68
2022/11/16 09:10:49;;;;;;;1.27;1.10;;;5.80;99.90;;;;;;6388060;27;20537;-67
2022/11/16 09:13:55;;;;;;;1.00;1.00;;;5.70;99.90;;;;;;6387468;27;20470;-67
2022/11/16 09:17:00;;;;;;;1.10;1.10;;;5.70;99.90;;;;;;6387976;27;20292;-67
2022/11/16 09:20:07;;;;;;;3.80;3.60;;;5.70;99.90;;;;;;6388220;27;20448;-67
2022/11/16 09:23:16;;;;;;;14.10;7.87;;;5.80;99.90;;;;;;6388018;27;20292;-67
2022/11/16 09:26:28;;;;;;;2.10;2.10;;;5.70;99.90;;;;;;6388611;27;20271;-67
2022/11/16 09:29:33;;;;;;;1.50;1.50;;;5.70;99.90;;;;;;6387920;27;20295;-68
2022/11/16 09:32:38;;;;;;;1.30;1.30;;;5.60;99.90;;;;;;6387386;27;20303;-68
2022/11/16 09:35:43;;;;;;;1.30;1.20;;;5.70;99.90;;;;;;6388158;27;20292;-68
2022/11/16 09:38:49;;;;;;;1.17;1.17;;;5.70;99.90;;;;;;6387419;27;20288;-68
2022/11/16 09:42:33;;;;;;;1.13;1.13;;;5.60;99.90;;;;;;6386929;27;20264;-68
2022/11/16 09:45:45;;;;;;;1.00;1.00;;;5.60;99.90;;;;;;6387170;27;20271;-68
2022/11/16 09:48:50;;;;;;;1.10;1.10;;;5.80;99.90;;;;;;6387457;27;20295;-68
2022/11/16 09:51:59;;;;;;;1.27;1.27;;;5.70;99.90;;;;;;6386917;27;20264;-67
2022/11/16 09:55:23;;;;;;;1.33;1.33;;;5.70;99.90;;;;;;6387115;27;20288;-67
2022/11/16 09:58:32;;;;;;;1.30;1.30;;;5.90;99.90;;;;;;6386893;27;20288;-67
2022/11/16 10:01:43;;;;;;;2.37;1.30;;;5.80;99.90;;;;;;6387271;27;20588;-67
2022/11/16 10:04:52;;;;;;;1.43;1.43;;;5.60;99.90;;;;;;6386740;27;20292;-68
2022/11/16 10:08:10;;;;;;;2.23;2.23;;;5.60;99.90;;;;;;6387121;27;20300;-68
2022/11/16 10:11:38;;;;;;;2.83;2.73;;;5.70;99.90;;;;;;6372253;27;20265;-68
2022/11/16 10:15:14;;;;;;;1.50;1.40;;;5.60;99.90;;;;;;6360283;28;20616;-68
2022/11/16 10:18:38;;;;;;;1.50;1.50;;;5.60;99.90;;;;;;6360795;28;20301;-68
2022/11/16 10:21:51;;;;;;;1.47;1.47;;;5.60;99.90;;;;;;6361470;28;20268;-68
2022/11/16 10:24:58;;;;;;;1.50;1.40;;;5.70;99.90;;;;;;6360461;28;20296;-68
2022/11/16 10:28:22;;;;;;;1.30;1.30;;;5.70;99.90;;;;;;6360801;28;20338;-67
2022/11/16 10:31:44;;;;;;;1.07;1.07;;;5.70;99.90;;;;;;6361649;28;20270;-67
2022/11/16 10:34:53;;;;;;;1.57;1.17;;;5.70;99.90;;;;;;6360606;28;20297;-68
2022/11/16 10:37:59;;;;;;;1.90;1.90;;;5.80;99.90;;;;;;6360519;28;20297;-68
2022/11/16 10:41:14;;;;;;;1.80;1.80;;;5.80;99.90;;;;;;6343350;28;20268;-68
2022/11/16 10:44:30;;;;;;;1.40;1.40;;;5.80;99.90;;;;;;6360732;28;20296;-68
2022/11/16 10:47:41;;;;;;;2.00;2.00;;;5.70;99.90;;;;;;6360423;28;20296;-66
2022/11/16 10:50:48;;;;;;;2.40;2.20;;;5.70;99.90;;;;;;6360831;28;20396;-68
2022/11/16 10:53:54;;;;;;;1.70;1.70;;;5.80;99.90;;;;;;6360268;28;20294;-68
2022/11/16 10:57:04;;;;;;;1.50;1.50;;;5.80;99.90;;;;;;6360550;28;20304;-66
2022/11/16 11:00:15;;;;;;;1.30;1.30;;;5.90;99.90;;;;;;6370098;28;20304;-66
2022/11/16 11:03:31;;;;;;;1.30;1.30;;;5.80;99.90;;;;;;6385516;27;20291;-67
2022/11/16 11:06:39;;;;;;;1.47;1.30;;;5.70;99.90;;;;;;6386137;28;20276;-68
2022/11/16 11:09:43;;;;;;;1.43;1.33;;;5.70;99.90;;;;;;6385656;27;20299;-67
2022/11/16 11:13:23;;;;;;;1.70;1.70;;;5.70;99.90;;;;;;6367430;28;20486;-67
2022/11/16 11:16:29;;;;;;;1.57;1.57;;;5.70;99.90;;;;;;6386420;28;22154;-67
2022/11/16 11:19:34;;;;;;;1.90;1.60;;;5.70;99.90;;;;;;6385647;28;20296;-67
2022/11/16 11:22:44;;;;;;;1.50;1.50;;;5.80;99.90;;;;;;6385181;28;20292;-67
2022/11/16 11:25:52;;;;;;;2.40;2.40;;;5.70;99.90;;;;;;6386384;28;20429;-67
2022/11/16 11:28:57;;;;;;;2.50;2.30;;;5.70;99.90;;;;;;6385633;28;20302;-66
2022/11/16 11:32:06;;;;;;;2.03;1.93;;;5.70;99.90;;;;;;6385141;28;20457;-66
2022/11/16 11:35:23;;;;;;;2.00;2.00;;;5.80;99.90;;;;;;6387251;27;20441;-67
2022/11/16 11:38:29;;;;;;;1.60;1.60;;;5.70;99.90;;;;;;6390096;27;20300;-67
2022/11/16 11:41:36;;;;;;;1.40;1.40;;;5.70;99.90;;;;;;6391013;27;20264;-67
2022/11/16 11:44:49;;;;;;;1.53;1.23;;;5.80;99.90;;;;;;6390510;27;20292;-67
2022/11/16 11:48:00;;;;;;;1.40;1.40;;;5.80;99.90;;;;;;6390242;27;20471;-68
2022/11/16 11:51:13;;;;;;;2.00;2.00;;;5.80;99.90;;;;;;6390760;27;20287;-68
2022/11/16 11:54:22;;;;;;;1.60;1.60;;;5.70;99.90;;;;;;6389728;27;20604;-67
2022/11/16 11:57:27;;;;;;;1.90;1.80;;;5.70;99.90;;;;;;6389822;27;20299;-67
2022/11/16 12:00:40;;;;;;;2.03;1.87;;;5.70;99.90;;;;;;6389733;27;20296;-67
2022/11/16 12:04:39;;;;;;;1.50;1.50;;;5.70;99.90;;;;;;6371545;27;20294;-67
2022/11/16 12:08:04;;;;;;;1.40;1.40;;;5.80;99.90;;;;;;6342779;27;20299;-67
2022/11/16 12:11:18;;;;;;;1.27;1.27;;;5.70;99.90;;;;;;6375868;27;20261;-67
2022/11/16 12:14:51;;;;;;;2.80;1.47;;;5.70;99.90;;;;;;6364114;28;20300;-67
2022/11/16 12:18:10;;;;;;;1.60;1.60;;;5.80;99.90;;;;;;6363982;28;20304;-67
2022/11/16 12:21:22;;;;;;;1.43;1.43;;;5.70;99.90;;;;;;6364467;28;20269;-67
2022/11/16 12:24:43;;;;;;;1.50;1.40;;;5.70;99.90;;;;;;6363590;28;20301;-67
2022/11/16 12:27:57;;;;;;;1.60;1.60;;;5.70;99.90;;;;;;6362238;28;20301;-67
2022/11/16 12:31:34;;;;;;;1.30;1.30;;;5.70;99.90;;;;;;6364346;28;20277;-67
2022/11/16 12:34:54;;;;;;;1.43;1.43;;;5.80;99.90;;;;;;6363466;28;20292;-67
2022/11/16 12:38:10;;;;;;;2.07;1.40;;;5.80;99.90;;;;;;6363277;28;20307;-67
2022/11/16 12:41:44;;;;;;;1.57;1.57;;;5.80;99.90;;;;;;6363797;28;20264;-67
2022/11/16 12:45:32;;;;;;;1.90;1.80;;;5.80;99.90;;;;;;6363480;28;20292;-67
2022/11/16 12:49:01;;;;;;;1.50;1.50;;;5.80;99.90;;;;;;6360551;28;20301;-67
2022/11/16 12:52:20;;;;;;;1.60;1.60;;;5.90;99.90;;;;;;6363201;28;20267;-66
2022/11/16 12:55:33;;;;;;;1.97;1.97;;;5.90;99.90;;;;;;6345942;28;20268;-66
2022/11/16 12:58:54;;;;;;;1.70;1.70;;;5.90;99.90;;;;;;6362925;28;20300;-67
2022/11/16 13:02:15;;;;;;;1.40;1.40;;;5.80;99.90;;;;;;6386711;27;20316;-66
2022/11/16 13:05:23;;;;;;;1.43;1.43;;;5.90;99.90;;;;;;6388984;27;20268;-66
2022/11/16 13:08:43;;;;;;;1.50;1.50;;;5.90;99.90;;;;;;6387816;27;20307;-66
2022/11/16 13:11:53;;;;;;;1.17;1.17;;;5.90;99.90;;;;;;6388949;27;20309;-67
2022/11/16 13:14:59;;;;;;;1.30;1.30;;;5.80;99.90;;;;;;6387402;27;20284;-67
2022/11/16 13:18:07;;;;;;;1.30;1.30;;;5.80;99.90;;;;;;6388208;27;20300;-67
2022/11/16 13:21:22;;;;;;;1.27;1.27;;;5.80;99.90;;;;;;6388319;27;20267;-66
2022/11/16 13:24:40;;;;;;;1.60;1.10;;;5.80;99.90;;;;;;6387861;27;20292;-67
2022/11/16 13:27:49;;;;;;;1.20;1.20;;;5.80;99.90;;;;;;6387818;27;20294;-68
2022/11/16 13:31:03;;;;;;;1.20;1.20;;;5.70;99.90;;;;;;6388114;27;20276;-68
2022/11/16 13:34:15;;;;;;;1.47;1.40;;;5.80;99.90;;;;;;6369502;27;20292;-68
2022/11/16 13:37:46;;;;;;;1.50;1.50;;;5.90;99.90;;;;;;6387502;27;20295;-68
2022/11/16 13:40:51;;;;;;;1.30;1.30;;;5.90;99.90;;;;;;6387726;27;20268;-68
2022/11/16 13:43:58;;;;;;;1.40;1.40;;;5.90;99.90;;;;;;6387820;27;20592;-67
2022/11/16 13:47:04;;;;;;;1.90;1.47;;;5.90;99.90;;;;;;6386625;27;20262;-67
2022/11/16 13:50:20;;;;;;;1.60;1.50;;;5.90;99.90;;;;;;6369687;27;20288;-66
2022/11/16 13:53:32;;;;;;;1.40;1.40;;;5.90;99.90;;;;;;6387236;27;20293;-67
2022/11/16 13:56:57;;;;;;;1.43;1.33;;;5.80;99.90;;;;;;6386660;27;20272;-67
2022/11/16 14:00:20;;;;;;;1.40;1.40;;;5.70;99.90;;;;;;6387083;27;20470;-67
2022/11/16 14:03:38;;;;;;;1.20;1.20;;;5.70;99.90;;;;;;6386844;27;20296;-68
2022/11/16 14:07:00;;;;;;;1.40;1.40;;;5.70;99.90;;;;;;6387408;27;20264;-67
2022/11/16 14:10:06;;;;;;;1.63;1.50;;;5.80;99.90;;;;;;6380543;27;20276;-67
2022/11/16 14:13:39;;;;;;;1.30;1.30;;;5.70;99.90;;;;;;6360755;28;20316;-67
2022/11/16 14:16:49;;;;;;;1.40;1.40;;;5.80;99.90;;;;;;6361958;28;20276;-68
2022/11/16 14:19:54;;;;;;;1.40;1.40;;;5.80;99.90;;;;;;6360659;28;20478;-68
2022/11/16 14:23:16;;;;;;;1.20;1.20;;;5.80;99.90;;;;;;6361040;28;20372;-67
2022/11/16 14:26:27;;;;;;;1.20;1.20;;;5.80;99.90;;;;;;6361300;28;20435;-70
2022/11/16 14:29:47;;;;;;;1.10;1.10;;;5.70;99.90;;;;;;6360939;28;20597;-67
2022/11/16 14:32:55;;;;;;;1.10;1.10;;;5.70;99.90;;;;;;6360806;28;20483;-67
2022/11/16 14:36:02;;;;;;;1.70;1.20;;;5.80;99.90;;;;;;6361591;28;20265;-67
2022/11/16 14:39:30;;;;;;;1.40;1.33;;;5.70;99.90;;;;;;6360662;28;20295;-67
2022/11/16 14:42:43;;;;;;;1.30;1.30;;;5.70;99.90;;;;;;6360860;28;20485;-67
2022/11/16 14:46:30;;;;;;;1.00;1.00;;;5.80;99.90;;;;;;6360873;28;20460;-67
2022/11/16 14:49:38;;;;;;;2.60;1.20;;;5.70;99.90;;;;;;6360310;28;20301;-67
2022/11/16 14:52:47;;;;;;;1.13;1.13;;;5.70;99.90;;;;;;6360236;28;20398;-66
2022/11/16 14:55:52;;;;;;;1.13;1.13;;;5.70;99.90;;;;;;6361271;28;20269;-67
2022/11/16 14:58:58;;;;;;;1.40;1.40;;;5.60;99.90;;;;;;6360372;28;20319;-67
2022/11/16 15:02:17;;;;;;;2.07;1.70;;;5.70;99.90;;;;;;6384298;28;20611;-67
2022/11/16 15:05:28;;;;;;;1.43;1.43;;;5.60;99.90;;;;;;6386628;28;20267;-67
2022/11/16 15:08:37;;;;;;;1.30;1.30;;;5.70;99.90;;;;;;6385800;27;20295;-67
2022/11/16 15:15:14;;;;;;;1.80;1.70;;;5.60;99.90;;;;;;6390956;27;20271;-67
2022/11/16 15:18:22;;;;;;;1.90;1.27;;;5.70;99.90;;;;;;6391119;27;20409;-66
2022/11/16 15:21:29;;;;;;;1.10;1.10;;;5.60;99.90;;;;;;6391172;27;20292;-67
2022/11/16 15:24:35;;;;;;;1.37;1.20;;;5.60;99.90;;;;;;6390939;27;20288;-67
2022/11/16 15:27:42;;;;;;;1.70;1.10;;;5.60;99.90;;;;;;6390988;27;20350;-68
2022/11/16 15:30:51;;;;;;;2.13;2.03;;;5.70;99.90;;;;;;6391081;27;20275;-67
2022/11/16 15:33:55;;;;;;;1.33;1.33;;;5.70;99.90;;;;;;6390601;27;20295;-67
2022/11/16 15:37:02;;;;;;;1.33;1.33;;;5.60;99.90;;;;;;6390791;27;20260;-67
2022/11/16 15:40:11;;;;;;;1.20;1.20;;;5.60;99.90;;;;;;6390883;27;20345;-67
2022/11/16 15:43:16;;;;;;;1.30;1.30;;;5.60;99.90;;;;;;6390500;27;20291;-67
2022/11/16 15:46:21;;;;;;;1.20;1.20;;;5.50;99.90;;;;;;6372661;27;20268;-67
2022/11/16 15:49:29;;;;;;;1.30;1.30;;;5.50;99.90;;;;;;6390076;27;20292;-67
2022/11/16 15:52:49;;;;;;;1.70;1.70;;;5.60;99.90;;;;;;6389979;27;20292;-67
2022/11/16 15:55:53;;;;;;;1.60;1.60;;;5.50;99.90;;;;;;6390964;27;20261;-67
2022/11/16 15:59:01;;;;;;;1.63;1.40;;;5.50;99.90;;;;;;6390157;27;20294;-68
2022/11/16 16:02:14;;;;;;;1.67;1.37;;;5.50;99.90;;;;;;6388837;27;20307;-68
2022/11/16 16:05:19;;;;;;;1.50;1.50;;;5.40;99.90;;;;;;6389865;27;20271;-68
2022/11/16 16:08:34;;;;;;;1.40;1.40;;;5.40;99.90;;;;;;6389804;27;20292;-68
2022/11/16 16:11:39;;;;;;;1.33;1.33;;;5.50;99.90;;;;;;6390281;27;20572;-67
2022/11/16 16:14:44;;;;;;;2.33;1.73;;;5.40;99.90;;;;;;6389298;27;20292;-68
2022/11/16 16:17:50;;;;;;;1.50;1.50;;;5.50;99.90;;;;;;6389592;27;20299;-67
2022/11/16 16:20:54;;;;;;;1.23;1.23;;;5.50;99.90;;;;;;6389264;27;20284;-67
2022/11/16 16:24:00;;;;;;;1.23;1.20;;;5.40;99.90;;;;;;6389452;27;20296;-67
2022/11/16 16:27:15;;;;;;;1.70;1.70;;;5.50;99.90;;;;;;6389145;27;20422;-68
2022/11/16 16:30:20;;;;;;;2.60;2.60;;;5.50;99.90;;;;;;6389751;27;20276;-68
2022/11/16 16:33:30;;;;;;;1.60;1.60;;;5.50;99.90;;;;;;6388511;27;20300;-67
2022/11/16 16:36:40;;;;;;;1.90;1.70;;;5.40;99.90;;;;;;6389721;27;20283;-67
2022/11/16 16:39:51;;;;;;;1.60;1.60;;;5.30;99.90;;;;;;6388772;27;20290;-67
2022/11/16 16:42:58;;;;;;;2.10;2.10;;;5.20;99.90;;;;;;6371087;27;20443;-67
2022/11/16 16:46:05;;;;;;;2.07;1.90;;;5.20;99.90;;;;;;6388993;27;20271;-68
2022/11/16 16:49:12;;;;;;;1.90;1.90;;;5.20;99.90;;;;;;6388774;27;20298;-66
2022/11/16 16:52:19;;;;;;;1.50;1.50;;;5.20;99.90;;;;;;6387381;27;20306;-66
2022/11/16 16:55:28;;;;;;;1.60;1.60;;;5.30;99.90;;;;;;6389118;27;20485;-65
2022/11/16 16:58:41;;;;;;;2.50;2.30;;;5.30;99.90;;;;;;6388596;27;20488;-66
2022/11/16 17:01:47;;;;;;;1.87;1.87;;;5.30;99.90;;;;;;6388474;27;20623;-67
2022/11/16 17:04:54;;;;;;;1.63;1.53;;;5.30;99.90;;;;;;6388167;27;20290;-67
2022/11/16 17:08:02;;;;;;;1.70;1.70;;;5.30;99.90;;;;;;6388408;27;20309;-67
2022/11/16 17:11:11;;;;;;;1.70;1.60;;;5.30;99.90;;;;;;6370770;27;20267;-67
2022/11/16 17:14:20;;;;;;;1.70;1.70;;;5.30;99.90;;;;;;6388463;27;20312;-68
2022/11/16 17:17:27;;;;;;;1.90;1.90;;;5.30;99.90;;;;;;6388032;27;20292;-66
2022/11/16 17:20:34;;;;;;;1.73;1.73;;;5.20;99.90;;;;;;6388917;27;20592;-67
2022/11/16 17:23:43;;;;;;;1.30;1.30;;;5.20;99.90;;;;;;6387999;27;20311;-67
2022/11/16 17:26:51;;;;;;;1.90;1.90;;;5.20;99.90;;;;;;6388086;27;20265;-68
2022/11/16 17:29:58;;;;;;;1.80;1.80;;;5.20;99.90;;;;;;6388034;27;20311;-68
2022/11/16 17:33:05;;;;;;;1.90;1.90;;;5.30;99.90;;;;;;6386466;27;20298;-68